sensor_id;sensor_type;location;lat;lon;timestamp;pressure;altitude;pressure_sealevel;temperature;humidity
54854;BME280;40747;49.480;8.658;2024-02-28T00:01:24;100449.44;;;6.35;86.79
54854;BME280;40747;49.480;8.658;2024-02-28T00:03:51;100446.88;;;6.32;87.42
54854;BME280;40747;49.480;8.658;2024-02-28T00:06:17;100439.06;;;6.28;87.64
54854;BME280;40747;49.480;8.658;2024-02-28T00:08:43;100437.41;;;6.19;87.22
54854;BME280;40747;49.480;8.658;2024-02-28T00:11:09;100447.88;;;6.22;87.26
54854;BME280;40747;49.480;8.658;2024-02-28T00:13:35;100443.50;;;6.21;87.60
54854;BME280;40747;49.480;8.658;2024-02-28T00:16:02;100453.13;;;6.20;87.98
54854;BME280;40747;49.480;8.658;2024-02-28T00:18:29;100454.91;;;6.15;87.95
54854;BME280;40747;49.480;8.658;2024-02-28T00:20:58;100453.22;;;6.10;88.12
54854;BME280;40747;49.480;8.658;2024-02-28T00:23:24;100451.56;;;6.02;87.28
54854;BME280;40747;49.480;8.658;2024-02-28T00:25:50;100454.16;;;6.01;87.82
54854;BME280;40747;49.480;8.658;2024-02-28T00:28:17;100464.63;;;6.01;86.57
54854;BME280;40747;49.480;8.658;2024-02-28T00:30:43;100455.94;;;6.00;86.76
54854;BME280;40747;49.480;8.658;2024-02-28T00:33:09;100457.69;;;5.98;87.15
54854;BME280;40747;49.480;8.658;2024-02-28T00:35:36;100459.41;;;5.99;87.08
54854;BME280;40747;49.480;8.658;2024-02-28T00:38:02;100461.19;;;5.99;87.53
54854;BME280;40747;49.480;8.658;2024-02-28T00:40:28;100461.19;;;5.94;87.67
54854;BME280;40747;49.480;8.658;2024-02-28T00:42:55;100462.94;;;5.90;87.43
54854;BME280;40747;49.480;8.658;2024-02-28T00:45:21;100473.44;;;5.89;87.40
54854;BME280;40747;49.480;8.658;2024-02-28T00:47:47;100463.84;;;5.88;87.38
54854;BME280;40747;49.480;8.658;2024-02-28T00:50:13;100432.63;;;5.71;87.10
54854;BME280;40747;49.480;8.658;2024-02-28T00:52:40;100465.63;;;5.86;87.84
54854;BME280;40747;49.480;8.658;2024-02-28T00:55:07;100463.06;;;5.80;87.88
54854;BME280;40747;49.480;8.658;2024-02-28T00:57:34;100466.56;;;5.74;87.67
54854;BME280;40747;49.480;8.658;2024-02-28T01:00:00;100463.16;;;5.70;87.15
54854;BME280;40747;49.480;8.658;2024-02-28T01:02:26;100413.69;;;5.44;87.07
54854;BME280;40747;49.480;8.658;2024-02-28T01:04:53;100457.88;;;5.73;87.29
54854;BME280;40747;49.480;8.658;2024-02-28T01:07:19;100460.53;;;5.70;87.24
54854;BME280;40747;49.480;8.658;2024-02-28T01:09:45;100469.28;;;5.68;87.46
54854;BME280;40747;49.480;8.658;2024-02-28T01:12:11;100470.16;;;5.65;87.77
54854;BME280;40747;49.480;8.658;2024-02-28T01:14:37;100473.66;;;5.63;87.35
54854;BME280;40747;49.480;8.658;2024-02-28T01:17:03;100471.94;;;5.62;88.55
54854;BME280;40747;49.480;8.658;2024-02-28T01:19:28;100479.78;;;5.57;88.66
54854;BME280;40747;49.480;8.658;2024-02-28T01:21:54;100478.09;;;5.53;88.70
54854;BME280;40747;49.480;8.658;2024-02-28T01:24:20;100478.16;;;5.40;88.80
54854;BME280;40747;49.480;8.658;2024-02-28T01:26:45;100481.72;;;5.33;88.09
54854;BME280;40747;49.480;8.658;2024-02-28T01:29:11;100486.09;;;5.28;87.47
54854;BME280;40747;49.480;8.658;2024-02-28T01:31:37;100486.19;;;5.14;87.59
54854;BME280;40747;49.480;8.658;2024-02-28T01:34:04;100480.16;;;4.98;87.75
54854;BME280;40747;49.480;8.658;2024-02-28T01:36:30;100488.06;;;4.78;88.83
54854;BME280;40747;49.480;8.658;2024-02-28T01:38:56;100482.94;;;4.56;90.45
54854;BME280;40747;49.480;8.658;2024-02-28T01:41:22;100493.38;;;4.58;90.81
54854;BME280;40747;49.480;8.658;2024-02-28T01:43:48;100489.06;;;4.45;92.16
54854;BME280;40747;49.480;8.658;2024-02-28T01:46:24;100492.50;;;4.64;92.73
54854;BME280;40747;49.480;8.658;2024-02-28T01:48:52;100485.50;;;4.64;92.30
54854;BME280;40747;49.480;8.658;2024-02-28T01:51:19;100490.72;;;4.69;91.37
54854;BME280;40747;49.480;8.658;2024-02-28T01:53:45;100502.91;;;4.65;92.04
54854;BME280;40747;49.480;8.658;2024-02-28T01:56:14;100502.03;;;4.66;91.87
54854;BME280;40747;49.480;8.658;2024-02-28T01:58:45;100502.91;;;4.65;92.53
54854;BME280;40747;49.480;8.658;2024-02-28T02:01:14;100500.31;;;4.65;91.88
54854;BME280;40747;49.480;8.658;2024-02-28T02:03:43;100500.31;;;4.67;91.93
54854;BME280;40747;49.480;8.658;2024-02-28T02:06:09;100502.97;;;4.54;91.47
54854;BME280;40747;49.480;8.658;2024-02-28T02:08:36;100506.44;;;4.58;90.94
54854;BME280;40747;49.480;8.658;2024-02-28T02:11:04;100507.28;;;4.60;91.36
54854;BME280;40747;49.480;8.658;2024-02-28T02:13:32;100517.75;;;4.57;91.75
54854;BME280;40747;49.480;8.658;2024-02-28T02:15:57;100513.38;;;4.56;91.65
54854;BME280;40747;49.480;8.658;2024-02-28T02:18:24;100519.47;;;4.56;91.91
54854;BME280;40747;49.480;8.658;2024-02-28T02:20:54;100521.19;;;4.59;92.08
54854;BME280;40747;49.480;8.658;2024-02-28T02:23:22;100523.84;;;4.53;91.32
54854;BME280;40747;49.480;8.658;2024-02-28T02:25:49;100522.97;;;4.55;91.73
54854;BME280;40747;49.480;8.658;2024-02-28T02:28:18;100529.91;;;4.61;91.18
54854;BME280;40747;49.480;8.658;2024-02-28T02:30:44;100535.16;;;4.46;91.65
54854;BME280;40747;49.480;8.658;2024-02-28T02:33:12;100530.84;;;4.23;92.21
54854;BME280;40747;49.480;8.658;2024-02-28T02:35:38;100533.47;;;3.93;93.79
54854;BME280;40747;49.480;8.658;2024-02-28T02:38:04;100529.97;;;3.90;94.13
54854;BME280;40747;49.480;8.658;2024-02-28T02:40:30;100535.22;;;3.76;94.46
54854;BME280;40747;49.480;8.658;2024-02-28T02:42:56;100528.25;;;3.92;94.54
54854;BME280;40747;49.480;8.658;2024-02-28T02:45:22;100532.59;;;4.02;93.65
54854;BME280;40747;49.480;8.658;2024-02-28T02:47:48;100543.00;;;4.12;93.45
54854;BME280;40747;49.480;8.658;2024-02-28T02:50:14;100543.88;;;4.17;92.65
54854;BME280;40747;49.480;8.658;2024-02-28T02:52:41;100539.53;;;4.19;92.29
54854;BME280;40747;49.480;8.658;2024-02-28T02:55:07;100536.06;;;4.17;91.63
54854;BME280;40747;49.480;8.658;2024-02-28T02:57:33;100542.13;;;4.22;91.97
54854;BME280;40747;49.480;8.658;2024-02-28T03:00:00;100536.06;;;4.26;91.73
54854;BME280;40747;49.480;8.658;2024-02-28T03:02:26;100531.72;;;4.23;91.57
54854;BME280;40747;49.480;8.658;2024-02-28T03:04:52;100543.00;;;4.29;91.59
54854;BME280;40747;49.480;8.658;2024-02-28T03:07:18;100538.66;;;4.29;91.00
54854;BME280;40747;49.480;8.658;2024-02-28T03:09:44;100532.56;;;4.24;91.33
54854;BME280;40747;49.480;8.658;2024-02-28T03:12:10;100537.78;;;4.19;92.59
54854;BME280;40747;49.480;8.658;2024-02-28T03:14:36;100536.09;;;4.04;93.12
54854;BME280;40747;49.480;8.658;2024-02-28T03:17:02;100537.81;;;3.88;94.18
54854;BME280;40747;49.480;8.658;2024-02-28T03:19:29;100537.81;;;3.88;95.09
54854;BME280;40747;49.480;8.658;2024-02-28T03:21:55;100543.03;;;3.93;95.27
54854;BME280;40747;49.480;8.658;2024-02-28T03:24:22;100543.03;;;3.87;95.16
54854;BME280;40747;49.480;8.658;2024-02-28T03:26:48;100558.66;;;3.93;95.12
54854;BME280;40747;49.480;8.658;2024-02-28T03:29:14;100562.16;;;3.89;95.08
54854;BME280;40747;49.480;8.658;2024-02-28T03:31:41;100555.19;;;3.88;93.64
54854;BME280;40747;49.480;8.658;2024-02-28T03:34:07;100530.84;;;3.70;93.60
54854;BME280;40747;49.480;8.658;2024-02-28T03:36:34;100556.94;;;3.92;93.37
54854;BME280;40747;49.480;8.658;2024-02-28T03:39:01;100569.09;;;4.02;93.19
54854;BME280;40747;49.480;8.658;2024-02-28T03:41:27;100570.84;;;4.02;92.77
54854;BME280;40747;49.480;8.658;2024-02-28T03:43:56;100568.22;;;4.06;92.31
54854;BME280;40747;49.480;8.658;2024-02-28T03:46:22;100574.31;;;4.02;92.25
54854;BME280;40747;49.480;8.658;2024-02-28T03:48:48;100573.44;;;4.02;92.48
54854;BME280;40747;49.480;8.658;2024-02-28T03:51:16;100584.75;;;3.99;92.47
54854;BME280;40747;49.480;8.658;2024-02-28T03:53:42;100587.31;;;3.88;92.50
54854;BME280;40747;49.480;8.658;2024-02-28T03:56:08;100589.94;;;3.88;92.92
54854;BME280;40747;49.480;8.658;2024-02-28T03:58:35;100588.22;;;3.89;93.10
54854;BME280;40747;49.480;8.658;2024-02-28T04:01:01;100591.66;;;3.83;92.73
54854;BME280;40747;49.480;8.658;2024-02-28T04:03:27;100590.78;;;3.84;92.47
54854;BME280;40747;49.480;8.658;2024-02-28T04:05:52;100592.53;;;3.87;92.67
54854;BME280;40747;49.480;8.658;2024-02-28T04:08:19;100598.63;;;3.83;92.60
54854;BME280;40747;49.480;8.658;2024-02-28T04:10:45;100600.34;;;3.81;92.05
54854;BME280;40747;49.480;8.658;2024-02-28T04:13:10;100604.69;;;3.83;92.15
54854;BME280;40747;49.480;8.658;2024-02-28T04:15:36;100613.38;;;3.82;91.80
54854;BME280;40747;49.480;8.658;2024-02-28T04:18:04;100611.66;;;3.83;91.63
54854;BME280;40747;49.480;8.658;2024-02-28T04:20:30;100617.72;;;3.80;91.54
54854;BME280;40747;49.480;8.658;2024-02-28T04:22:56;100613.38;;;3.79;91.36
54854;BME280;40747;49.480;8.658;2024-02-28T04:25:22;100620.31;;;3.80;91.46
54854;BME280;40747;49.480;8.658;2024-02-28T04:27:49;100616.84;;;3.78;91.29
54854;BME280;40747;49.480;8.658;2024-02-28T04:30:15;100616.84;;;3.75;91.39
54854;BME280;40747;49.480;8.658;2024-02-28T04:32:42;100614.22;;;3.67;92.02
54854;BME280;40747;49.480;8.658;2024-02-28T04:35:08;100621.16;;;3.62;92.22
54854;BME280;40747;49.480;8.658;2024-02-28T04:37:34;100621.13;;;3.50;93.08
54854;BME280;40747;49.480;8.658;2024-02-28T04:40:03;100616.75;;;3.49;93.90
54854;BME280;40747;49.480;8.658;2024-02-28T04:42:30;100627.97;;;3.24;94.01
54854;BME280;40747;49.480;8.658;2024-02-28T04:44:56;100633.06;;;3.04;93.85
54854;BME280;40747;49.480;8.658;2024-02-28T04:47:22;100640.03;;;3.08;93.52
54854;BME280;40747;49.480;8.658;2024-02-28T04:49:48;100638.34;;;3.17;93.50
54854;BME280;40747;49.480;8.658;2024-02-28T04:52:14;100640.00;;;3.02;93.01
54854;BME280;40747;49.480;8.658;2024-02-28T04:54:40;100639.00;;;2.78;95.20
54854;BME280;40747;49.480;8.658;2024-02-28T04:57:07;100643.28;;;2.70;96.11
54854;BME280;40747;49.480;8.658;2024-02-28T04:59:33;100652.00;;;2.77;96.26
54854;BME280;40747;49.480;8.658;2024-02-28T05:01:59;100657.25;;;2.86;95.93
54854;BME280;40747;49.480;8.658;2024-02-28T05:04:25;100659.91;;;2.92;95.78
54854;BME280;40747;49.480;8.658;2024-02-28T05:06:50;100662.50;;;2.88;95.39
54854;BME280;40747;49.480;8.658;2024-02-28T05:09:17;100660.78;;;2.99;95.16
54854;BME280;40747;49.480;8.658;2024-02-28T05:11:44;100662.56;;;3.06;95.13
54854;BME280;40747;49.480;8.658;2024-02-28T05:14:09;100662.56;;;3.06;94.73
54854;BME280;40747;49.480;8.658;2024-02-28T05:16:36;100661.72;;;3.10;94.66
54854;BME280;40747;49.480;8.658;2024-02-28T05:19:03;100674.78;;;3.17;95.17
54854;BME280;40747;49.480;8.658;2024-02-28T05:21:30;100673.91;;;3.15;95.05
54854;BME280;40747;49.480;8.658;2024-02-28T05:23:56;100666.97;;;3.12;94.89
54854;BME280;40747;49.480;8.658;2024-02-28T05:26:22;100673.00;;;3.09;95.11
54854;BME280;40747;49.480;8.658;2024-02-28T05:28:48;100669.28;;;1.73;100.00
54854;BME280;40747;49.480;8.658;2024-02-28T05:31:23;100676.63;;;1.35;100.00
54854;BME280;40747;49.480;8.658;2024-02-28T05:33:53;100676.31;;;1.11;100.00
54854;BME280;40747;49.480;8.658;2024-02-28T05:36:21;100687.63;;;1.17;100.00
54854;BME280;40747;49.480;8.658;2024-02-28T05:38:48;100696.03;;;0.98;100.00
54854;BME280;40747;49.480;8.658;2024-02-28T05:41:16;100702.00;;;0.94;100.00
54854;BME280;40747;49.480;8.658;2024-02-28T05:43:42;100712.38;;;0.94;100.00
54854;BME280;40747;49.480;8.658;2024-02-28T05:46:08;100706.31;;;0.92;100.00
54854;BME280;40747;49.480;8.658;2024-02-28T05:48:35;100706.25;;;0.89;100.00
54854;BME280;40747;49.480;8.658;2024-02-28T05:51:01;100694.81;;;0.76;100.00
54854;BME280;40747;49.480;8.658;2024-02-28T05:53:28;100717.50;;;0.90;100.00
54854;BME280;40747;49.480;8.658;2024-02-28T05:55:58;100698.09;;;0.63;100.00
54854;BME280;40747;49.480;8.658;2024-02-28T05:58:25;100727.34;;;0.56;100.00
54854;BME280;40747;49.480;8.658;2024-02-28T06:00:51;100739.31;;;0.47;100.00
54854;BME280;40747;49.480;8.658;2024-02-28T06:03:17;100735.56;;;0.33;100.00
54854;BME280;40747;49.480;8.658;2024-02-28T06:05:44;100737.34;;;0.36;100.00
54854;BME280;40747;49.480;8.658;2024-02-28T06:08:09;100734.63;;;0.80;100.00
54854;BME280;40747;49.480;8.658;2024-02-28T06:10:35;100741.19;;;1.11;100.00
54854;BME280;40747;49.480;8.658;2024-02-28T06:13:02;100744.28;;;1.49;100.00
54854;BME280;40747;49.480;8.658;2024-02-28T06:15:28;100744.56;;;1.70;100.00
54854;BME280;40747;49.480;8.658;2024-02-28T06:17:57;100748.31;;;1.95;100.00
54854;BME280;40747;49.480;8.658;2024-02-28T06:20:25;100753.59;;;2.03;100.00
54854;BME280;40747;49.480;8.658;2024-02-28T06:22:51;100758.16;;;2.24;100.00
54854;BME280;40747;49.480;8.658;2024-02-28T06:25:18;100755.66;;;2.35;100.00
54854;BME280;40747;49.480;8.658;2024-02-28T06:27:48;100763.66;;;2.54;100.00
54854;BME280;40747;49.480;8.658;2024-02-28T06:30:16;100765.47;;;2.62;100.00
54854;BME280;40747;49.480;8.658;2024-02-28T06:32:42;100734.16;;;2.52;100.00
54854;BME280;40747;49.480;8.658;2024-02-28T06:35:09;100768.09;;;2.64;100.00
54854;BME280;40747;49.480;8.658;2024-02-28T06:37:36;100753.34;;;2.65;99.75
54854;BME280;40747;49.480;8.658;2024-02-28T06:40:03;100771.41;;;2.48;99.17
54854;BME280;40747;49.480;8.658;2024-02-28T06:42:30;100776.66;;;2.51;99.95
54854;BME280;40747;49.480;8.658;2024-02-28T06:44:57;100782.84;;;2.64;99.59
54854;BME280;40747;49.480;8.658;2024-02-28T06:47:23;100781.09;;;2.62;99.26
54854;BME280;40747;49.480;8.658;2024-02-28T06:49:49;100784.47;;;2.55;98.69
54854;BME280;40747;49.480;8.658;2024-02-28T06:52:17;100781.94;;;2.60;99.26
54854;BME280;40747;49.480;8.658;2024-02-28T06:54:43;100779.41;;;2.68;98.93
54854;BME280;40747;49.480;8.658;2024-02-28T06:57:10;100797.41;;;2.48;98.01
54854;BME280;40747;49.480;8.658;2024-02-28T06:59:37;100800.53;;;2.16;98.96
54854;BME280;40747;49.480;8.658;2024-02-28T07:02:03;100798.78;;;2.15;100.00
54854;BME280;40747;49.480;8.658;2024-02-28T07:04:30;100802.09;;;2.01;100.00
54854;BME280;40747;49.480;8.658;2024-02-28T07:06:55;100809.09;;;2.08;100.00
54854;BME280;40747;49.480;8.658;2024-02-28T07:09:21;100807.63;;;2.31;100.00
54854;BME280;40747;49.480;8.658;2024-02-28T07:11:47;100807.13;;;2.67;100.00
54854;BME280;40747;49.480;8.658;2024-02-28T07:14:14;100805.63;;;2.92;100.00
54854;BME280;40747;49.480;8.658;2024-02-28T07:16:40;100802.22;;;3.04;99.09
54854;BME280;40747;49.480;8.658;2024-02-28T07:19:06;100806.53;;;2.99;98.01
54854;BME280;40747;49.480;8.658;2024-02-28T07:21:32;100804.75;;;2.95;98.95
54854;BME280;40747;49.480;8.658;2024-02-28T07:23:58;100800.59;;;3.16;99.11
54854;BME280;40747;49.480;8.658;2024-02-28T07:26:25;100798.19;;;3.43;98.52
54854;BME280;40747;49.480;8.658;2024-02-28T07:28:51;100795.56;;;3.45;97.27
54854;BME280;40747;49.480;8.658;2024-02-28T07:31:21;100798.31;;;3.62;97.58
54854;BME280;40747;49.480;8.658;2024-02-28T07:33:47;100805.31;;;3.72;96.62
54854;BME280;40747;49.480;8.658;2024-02-28T07:36:14;100801.84;;;3.76;96.23
54854;BME280;40747;49.480;8.658;2024-02-28T07:38:43;100797.56;;;3.91;96.13
54854;BME280;40747;49.480;8.658;2024-02-28T07:41:09;100788.03;;;3.96;96.08
54854;BME280;40747;49.480;8.658;2024-02-28T07:43:36;100784.56;;;4.00;96.23
54854;BME280;40747;49.480;8.658;2024-02-28T07:46:08;100796.78;;;4.17;96.52
54854;BME280;40747;49.480;8.658;2024-02-28T07:48:38;100810.72;;;4.17;96.13
54854;BME280;40747;49.480;8.658;2024-02-28T07:51:06;100811.59;;;4.35;95.78
54854;BME280;40747;49.480;8.658;2024-02-28T07:53:32;100808.19;;;4.47;96.10
54854;BME280;40747;49.480;8.658;2024-02-28T07:55:59;100811.69;;;4.50;95.10
54854;BME280;40747;49.480;8.658;2024-02-28T07:58:25;100809.94;;;4.48;95.68
54854;BME280;40747;49.480;8.658;2024-02-28T08:00:51;100817.78;;;4.55;96.01
54854;BME280;40747;49.480;8.658;2024-02-28T08:03:21;100822.09;;;4.64;95.98
54854;BME280;40747;49.480;8.658;2024-02-28T08:05:47;100814.31;;;4.73;95.51
54854;BME280;40747;49.480;8.658;2024-02-28T08:08:14;100812.56;;;4.80;95.35
54854;BME280;40747;49.480;8.658;2024-02-28T08:10:40;100799.50;;;4.68;95.19
54854;BME280;40747;49.480;8.658;2024-02-28T08:13:07;100811.69;;;4.63;95.30
54854;BME280;40747;49.480;8.658;2024-02-28T08:15:33;100786.44;;;4.60;95.15
54854;BME280;40747;49.480;8.658;2024-02-28T08:17:59;100812.59;;;4.85;95.43
54854;BME280;40747;49.480;8.658;2024-02-28T08:20:25;100817.78;;;4.82;94.56
54854;BME280;40747;49.480;8.658;2024-02-28T08:22:52;100811.72;;;5.07;94.89
54854;BME280;40747;49.480;8.658;2024-02-28T08:25:19;100829.13;;;5.16;94.01
54854;BME280;40747;49.480;8.658;2024-02-28T08:27:47;100825.63;;;5.03;93.97
54854;BME280;40747;49.480;8.658;2024-02-28T08:30:14;100828.25;;;5.16;95.19
54854;BME280;40747;49.480;8.658;2024-02-28T08:32:41;100832.63;;;5.24;95.32
54854;BME280;40747;49.480;8.658;2024-02-28T08:35:08;100840.44;;;5.23;95.06
54854;BME280;40747;49.480;8.658;2024-02-28T08:37:38;100821.28;;;5.13;95.66
54854;BME280;40747;49.480;8.658;2024-02-28T08:40:06;100853.50;;;5.21;96.60
54854;BME280;40747;49.480;8.658;2024-02-28T08:42:32;100857.84;;;5.02;96.09
54854;BME280;40747;49.480;8.658;2024-02-28T08:45:00;100845.69;;;5.09;97.34
54854;BME280;40747;49.480;8.658;2024-02-28T08:47:27;100838.69;;;5.30;96.58
54854;BME280;40747;49.480;8.658;2024-02-28T08:49:53;100850.91;;;5.31;95.44
54854;BME280;40747;49.480;8.658;2024-02-28T08:52:21;100823.03;;;5.22;94.91
54854;BME280;40747;49.480;8.658;2024-02-28T08:54:47;100859.59;;;5.25;95.17
54854;BME280;40747;49.480;8.658;2024-02-28T08:57:14;100857.84;;;4.99;95.22
54854;BME280;40747;49.480;8.658;2024-02-28T08:59:40;100863.06;;;5.18;95.73
54854;BME280;40747;49.480;8.658;2024-02-28T09:02:07;100864.81;;;5.45;95.22
54854;BME280;40747;49.480;8.658;2024-02-28T09:04:34;100863.97;;;5.31;94.06
54854;BME280;40747;49.480;8.658;2024-02-28T09:07:00;100870.03;;;5.50;94.30
54854;BME280;40747;49.480;8.658;2024-02-28T09:09:26;100865.63;;;5.73;93.51
54854;BME280;40747;49.480;8.658;2024-02-28T09:11:54;100873.44;;;5.90;91.72
54854;BME280;40747;49.480;8.658;2024-02-28T09:14:21;100868.25;;;5.73;92.30
54854;BME280;40747;49.480;8.658;2024-02-28T09:16:47;100868.19;;;6.15;91.49
54854;BME280;40747;49.480;8.658;2024-02-28T09:19:14;100876.72;;;6.53;89.02
54854;BME280;40747;49.480;8.658;2024-02-28T09:21:40;100876.81;;;6.31;87.97
54854;BME280;40747;49.480;8.658;2024-02-28T09:24:07;100879.22;;;6.76;86.90
54854;BME280;40747;49.480;8.658;2024-02-28T09:26:39;100871.22;;;6.98;86.39
54854;BME280;40747;49.480;8.658;2024-02-28T09:29:05;100876.81;;;7.62;86.45
54854;BME280;40747;49.480;8.658;2024-02-28T09:31:31;100885.88;;;8.14;82.48
54854;BME280;40747;49.480;8.658;2024-02-28T09:33:57;100877.91;;;8.23;81.01
54854;BME280;40747;49.480;8.658;2024-02-28T09:36:24;100883.69;;;8.51;80.32
54854;BME280;40747;49.480;8.658;2024-02-28T09:38:50;100880.47;;;8.95;78.70
54854;BME280;40747;49.480;8.658;2024-02-28T09:41:17;100886.38;;;9.11;78.20
54854;BME280;40747;49.480;8.658;2024-02-28T09:43:45;100885.88;;;9.42;77.44
54854;BME280;40747;49.480;8.658;2024-02-28T09:46:13;100889.19;;;9.53;77.26
54854;BME280;40747;49.480;8.658;2024-02-28T09:48:40;100885.41;;;9.70;73.98
54854;BME280;40747;49.480;8.658;2024-02-28T09:51:11;100890.94;;;10.01;74.04
54854;BME280;40747;49.480;8.658;2024-02-28T09:53:38;100898.13;;;10.38;73.93
54854;BME280;40747;49.480;8.658;2024-02-28T09:56:06;100900.81;;;10.35;71.72
54854;BME280;40747;49.480;8.658;2024-02-28T09:58:36;100909.06;;;10.18;73.00
54854;BME280;40747;49.480;8.658;2024-02-28T10:01:07;100908.72;;;10.35;73.81
54854;BME280;40747;49.480;8.658;2024-02-28T10:03:36;100913.66;;;10.52;72.57
54854;BME280;40747;49.480;8.658;2024-02-28T10:06:02;100909.22;;;10.10;73.32
54854;BME280;40747;49.480;8.658;2024-02-28T10:08:28;100915.31;;;9.62;74.44
54854;BME280;40747;49.480;8.658;2024-02-28T10:10:57;100912.38;;;9.81;75.08
54854;BME280;40747;49.480;8.658;2024-02-28T10:13:24;100924.09;;;9.61;76.32
54854;BME280;40747;49.480;8.658;2024-02-28T10:15:51;100915.38;;;9.58;75.91
54854;BME280;40747;49.480;8.658;2024-02-28T10:18:17;100924.22;;;9.54;75.86
54854;BME280;40747;49.480;8.658;2024-02-28T10:20:43;100918.94;;;9.55;76.93
54854;BME280;40747;49.480;8.658;2024-02-28T10:23:09;100930.19;;;9.09;75.83
54854;BME280;40747;49.480;8.658;2024-02-28T10:25:45;100928.38;;;9.14;77.30
54854;BME280;40747;49.480;8.658;2024-02-28T10:28:13;100922.97;;;9.23;77.92
54854;BME280;40747;49.480;8.658;2024-02-28T10:30:43;100923.56;;;9.92;76.26
54854;BME280;40747;49.480;8.658;2024-02-28T10:33:14;100931.44;;;9.92;75.11
54854;BME280;40747;49.480;8.658;2024-02-28T10:35:44;100930.69;;;9.86;74.85
54854;BME280;40747;49.480;8.658;2024-02-28T10:38:11;100925.53;;;9.81;74.41
54854;BME280;40747;49.480;8.658;2024-02-28T10:40:40;100925.97;;;10.05;74.22
54854;BME280;40747;49.480;8.658;2024-02-28T10:43:10;100922.66;;;9.93;74.13
54854;BME280;40747;49.480;8.658;2024-02-28T10:45:36;100924.06;;;9.64;75.50
54854;BME280;40747;49.480;8.658;2024-02-28T10:48:06;100914.78;;;9.93;74.22
54854;BME280;40747;49.480;8.658;2024-02-28T10:50:32;100913.56;;;10.11;73.83
54854;BME280;40747;49.480;8.658;2024-02-28T10:53:02;100923.69;;;10.31;73.66
54854;BME280;40747;49.480;8.658;2024-02-28T10:55:39;100932.69;;;10.21;73.38
54854;BME280;40747;49.480;8.658;2024-02-28T10:58:09;100928.81;;;9.92;75.49
54854;BME280;40747;49.480;8.658;2024-02-28T11:00:39;100931.38;;;9.97;75.22
54854;BME280;40747;49.480;8.658;2024-02-28T11:03:05;100929.13;;;9.75;75.28
54854;BME280;40747;49.480;8.658;2024-02-28T11:08:10;100935.94;;;10.36;72.79
54854;BME280;40747;49.480;8.658;2024-02-28T11:10:40;100938.41;;;10.45;72.79
54854;BME280;40747;49.480;8.658;2024-02-28T11:13:05;100936.59;;;10.47;72.59
54854;BME280;40747;49.480;8.658;2024-02-28T11:15:31;100936.28;;;11.03;72.06
54854;BME280;40747;49.480;8.658;2024-02-28T11:18:07;100924.47;;;11.20;70.91
54854;BME280;40747;49.480;8.658;2024-02-28T11:20:33;100931.63;;;11.51;69.66
54854;BME280;40747;49.480;8.658;2024-02-28T11:22:59;100922.50;;;11.64;68.26
54854;BME280;40747;49.480;8.658;2024-02-28T11:25:25;100925.94;;;11.68;69.11
54854;BME280;40747;49.480;8.658;2024-02-28T11:27:50;100914.72;;;11.59;68.54
54854;BME280;40747;49.480;8.658;2024-02-28T11:30:15;100912.94;;;11.94;67.91
54854;BME280;40747;49.480;8.658;2024-02-28T11:32:41;100872.94;;;12.10;67.04
54854;BME280;40747;49.480;8.658;2024-02-28T11:35:07;100911.13;;;12.29;66.53
54854;BME280;40747;49.480;8.658;2024-02-28T11:37:33;100911.84;;;12.35;67.00
54854;BME280;40747;49.480;8.658;2024-02-28T11:39:59;100925.72;;;12.73;65.67
54854;BME280;40747;49.480;8.658;2024-02-28T11:42:24;100928.72;;;12.90;64.12
54854;BME280;40747;49.480;8.658;2024-02-28T11:44:53;100919.41;;;13.07;62.90
54854;BME280;40747;49.480;8.658;2024-02-28T11:47:22;100916.28;;;13.21;63.35
54854;BME280;40747;49.480;8.658;2024-02-28T11:49:49;100910.41;;;13.41;62.93
54854;BME280;40747;49.480;8.658;2024-02-28T11:52:14;100905.22;;;13.09;62.76
54854;BME280;40747;49.480;8.658;2024-02-28T11:54:40;100902.50;;;13.39;62.12
54854;BME280;40747;49.480;8.658;2024-02-28T11:57:07;100894.97;;;12.99;63.05
54854;BME280;40747;49.480;8.658;2024-02-28T11:59:32;100892.81;;;12.83;63.34
54854;BME280;40747;49.480;8.658;2024-02-28T12:01:58;100898.44;;;13.01;62.90
54854;BME280;40747;49.480;8.658;2024-02-28T12:04:26;100895.38;;;12.56;63.70
54854;BME280;40747;49.480;8.658;2024-02-28T12:06:51;100890.09;;;12.85;63.07
54854;BME280;40747;49.480;8.658;2024-02-28T12:09:17;100889.28;;;13.11;62.56
54854;BME280;40747;49.480;8.658;2024-02-28T12:11:43;100881.41;;;13.09;62.33
54854;BME280;40747;49.480;8.658;2024-02-28T12:14:09;100870.56;;;13.46;61.38
54854;BME280;40747;49.480;8.658;2024-02-28T12:16:39;100872.91;;;13.80;62.05
54854;BME280;40747;49.480;8.658;2024-02-28T12:19:11;100876.53;;;14.01;60.39
54854;BME280;40747;49.480;8.658;2024-02-28T12:21:38;100855.41;;;14.00;60.28
54854;BME280;40747;49.480;8.658;2024-02-28T12:24:07;100854.69;;;13.71;60.81
54854;BME280;40747;49.480;8.658;2024-02-28T12:26:37;100848.88;;;13.85;60.89
54854;BME280;40747;49.480;8.658;2024-02-28T12:29:03;100850.56;;;13.37;61.85
54854;BME280;40747;49.480;8.658;2024-02-28T12:31:28;100862.66;;;13.16;61.24
54854;BME280;40747;49.480;8.658;2024-02-28T12:33:53;100852.97;;;13.16;61.54
54854;BME280;40747;49.480;8.658;2024-02-28T12:36:20;100843.91;;;13.23;61.26
54854;BME280;40747;49.480;8.658;2024-02-28T12:38:45;100845.44;;;13.31;61.31
54854;BME280;40747;49.480;8.658;2024-02-28T12:41:11;100847.22;;;13.03;62.46
54854;BME280;40747;49.480;8.658;2024-02-28T12:43:36;100850.47;;;12.26;63.56
54854;BME280;40747;49.480;8.658;2024-02-28T12:46:02;100840.84;;;12.24;64.58
54854;BME280;40747;49.480;8.658;2024-02-28T12:48:27;100857.53;;;12.56;64.00
54854;BME280;40747;49.480;8.658;2024-02-28T12:50:54;100846.50;;;12.70;63.43
54854;BME280;40747;49.480;8.658;2024-02-28T12:53:19;100853.47;;;12.72;63.55
54854;BME280;40747;49.480;8.658;2024-02-28T12:55:45;100847.56;;;12.92;62.63
54854;BME280;40747;49.480;8.658;2024-02-28T12:58:10;100832.78;;;12.87;63.11